createdAt,value
2023-08-06T00:02:08.593Z,99559.31
2023-08-06T00:04:57.266Z,99563.00
2023-08-06T00:07:47.282Z,99557.22
2023-08-06T00:10:36.124Z,99534.63
2023-08-06T00:13:24.831Z,99535.59
2023-08-06T00:16:14.335Z,99534.13
2023-08-06T00:19:03.648Z,99521.78
2023-08-06T00:21:52.500Z,99524.31
2023-08-06T00:24:42.678Z,99508.25
2023-08-06T00:27:31.516Z,99524.75
2023-08-06T00:30:20.354Z,99514.53
2023-08-06T00:33:09.023Z,99523.13
2023-08-06T00:35:57.816Z,99528.03
2023-08-06T00:38:46.499Z,99526.03
2023-08-06T00:41:36.654Z,99518.25
2023-08-06T00:44:25.485Z,99519.50
2023-08-06T00:47:14.248Z,99508.56
2023-08-06T00:50:02.978Z,99499.28
2023-08-06T00:52:51.719Z,99499.25
2023-08-06T00:55:40.510Z,99497.00
2023-08-06T00:58:30.946Z,99493.53
2023-08-06T01:01:19.560Z,99485.06
2023-08-06T01:04:08.409Z,99481.59
2023-08-06T01:07:08.658Z,99485.44
2023-08-06T01:10:10.478Z,99482.16
2023-08-06T01:13:11.585Z,99479.72
2023-08-06T01:16:03.271Z,99468.81
2023-08-06T01:18:52.622Z,99468.22
2023-08-06T01:21:42.961Z,99477.63
2023-08-06T01:24:32.093Z,99471.00
2023-08-06T01:27:29.469Z,99462.22
2023-08-06T01:30:22.917Z,99463.38
2023-08-06T01:33:19.162Z,99455.50
2023-08-06T01:36:09.514Z,99453.63
2023-08-06T01:39:00.381Z,99448.81
2023-08-06T01:41:49.382Z,99445.50
2023-08-06T01:44:38.178Z,99446.91
2023-08-06T01:47:27.200Z,99440.03
2023-08-06T01:50:16.404Z,99437.38
2023-08-06T01:53:05.028Z,99428.41
2023-08-06T01:55:55.126Z,99432.03
2023-08-06T01:58:43.812Z,99432.50
2023-08-06T02:01:32.504Z,99434.13
2023-08-06T02:04:21.363Z,99429.13
2023-08-06T02:07:09.995Z,99428.41
2023-08-06T02:09:58.680Z,99434.69
2023-08-06T02:12:48.704Z,99441.91
2023-08-06T02:15:37.393Z,99440.03
2023-08-06T02:18:26.084Z,99448.53
2023-08-06T02:21:14.798Z,99444.81
2023-08-06T02:24:03.427Z,99439.84
2023-08-06T02:26:52.685Z,99437.38
2023-08-06T02:29:44.195Z,99445.88
2023-08-06T02:32:33.472Z,99432.94
2023-08-06T02:35:22.155Z,99434.34
2023-08-06T02:38:10.877Z,99432.50
2023-08-06T02:40:59.604Z,99423.84
2023-08-06T02:43:48.267Z,99415.72
2023-08-06T02:46:38.319Z,99422.47
2023-08-06T02:49:26.911Z,99416.78
2023-08-06T02:52:15.633Z,99412.72
2023-08-06T02:55:04.349Z,99414.34
2023-08-06T02:57:53.061Z,99408.28
2023-08-06T03:00:41.687Z,99409.47
2023-08-06T03:03:32.039Z,99401.19
2023-08-06T03:06:20.808Z,99400.41
2023-08-06T03:09:09.399Z,99399.22
2023-08-06T03:11:58.079Z,99387.94
2023-08-06T03:14:46.769Z,99378.28
2023-08-06T03:17:35.550Z,99375.72
2023-08-06T03:20:26.230Z,99368.16
2023-08-06T03:23:14.849Z,99361.97
2023-08-06T03:26:04.589Z,99363.81
2023-08-06T03:28:53.222Z,99364.41
2023-08-06T03:31:42.313Z,99366.97
2023-08-06T03:34:31.168Z,99366.88
2023-08-06T03:37:21.193Z,99354.00
2023-08-06T03:40:11.153Z,99353.63
2023-08-06T03:42:59.841Z,99352.00
2023-08-06T03:45:48.508Z,99344.22
2023-08-06T03:48:37.223Z,99338.88
2023-08-06T03:51:25.874Z,99339.22
2023-08-06T03:54:16.018Z,99333.88
2023-08-06T03:57:05.055Z,99335.13
2023-08-06T03:59:55.429Z,99330.72
2023-08-06T04:02:44.676Z,99324.56
2023-08-06T04:05:34.594Z,99318.84
2023-08-06T04:08:23.393Z,99320.41
2023-08-06T04:11:14.299Z,99309.34
2023-08-06T04:14:02.902Z,99304.91
2023-08-06T04:16:51.539Z,99305.00
2023-08-06T04:19:40.339Z,99296.41
2023-08-06T04:22:28.995Z,99305.00
2023-08-06T04:25:21.918Z,99301.66
2023-08-06T04:28:11.968Z,99299.78
2023-08-06T04:31:02.114Z,99294.44
2023-08-06T04:33:50.947Z,99289.44
2023-08-06T04:36:40.194Z,99279.31
2023-08-06T04:39:29.317Z,99282.94
2023-08-06T04:42:18.394Z,99275.88
2023-08-06T04:45:10.481Z,99281.91
2023-08-06T04:47:59.592Z,99275.13
2023-08-06T04:50:49.506Z,99280.38
2023-08-06T04:53:38.926Z,99282.47
2023-08-06T04:56:28.086Z,99279.00
2023-08-06T04:59:16.995Z,99270.50
2023-08-06T05:02:08.047Z,99274.94
2023-08-06T05:04:56.891Z,99266.94
2023-08-06T05:07:45.739Z,99274.81
2023-08-06T05:10:34.991Z,99264.13
2023-08-06T05:13:23.926Z,99265.75
2023-08-06T05:16:12.842Z,99262.50
2023-08-06T05:19:03.116Z,99257.16
2023-08-06T05:21:52.314Z,99260.97
2023-08-06T05:24:41.574Z,99257.72
2023-08-06T05:27:30.585Z,99251.56
2023-08-06T05:30:19.759Z,99253.91
2023-08-06T05:33:08.777Z,99243.19
2023-08-06T05:35:59.360Z,99239.00
2023-08-06T05:38:48.512Z,99244.81
2023-08-06T05:41:37.415Z,99239.94
2023-08-06T05:44:26.652Z,99236.22
2023-08-06T05:47:15.496Z,99232.72
2023-08-06T05:50:04.586Z,99227.63
2023-08-06T05:52:55.664Z,99237.84
2023-08-06T05:55:44.505Z,99239.47
2023-08-06T05:58:33.562Z,99237.50
2023-08-06T06:01:22.668Z,99235.88
2023-08-06T06:04:11.741Z,99235.75
2023-08-06T06:07:00.572Z,99237.84
2023-08-06T06:09:51.072Z,99238.31
2023-08-06T06:12:41.889Z,99240.75
2023-08-06T06:15:30.853Z,99236.69
2023-08-06T06:18:19.694Z,99236.69
2023-08-06T06:21:08.891Z,99237.84
2023-08-06T06:23:58.002Z,99237.03
2023-08-06T06:26:48.455Z,99232.97
2023-08-06T06:29:37.377Z,99236.81
2023-08-06T06:32:26.708Z,99227.75
2023-08-06T06:35:15.682Z,99223.91
2023-08-06T06:38:04.799Z,99229.25
2023-08-06T06:40:57.489Z,99221.09
2023-08-06T06:43:47.897Z,99230.88
2023-08-06T06:46:37.463Z,99234.59
2023-08-06T06:49:26.664Z,99233.09
2023-08-06T06:52:15.635Z,99235.03
2023-08-06T06:55:05.095Z,99239.72
2023-08-06T06:57:53.780Z,99240.88
2023-08-06T07:00:43.796Z,99249.47
2023-08-06T07:03:32.560Z,99252.03
2023-08-06T07:06:21.255Z,99245.97
2023-08-06T07:09:09.897Z,99249.25
2023-08-06T07:11:58.601Z,99246.78
2023-08-06T07:14:47.208Z,99244.34
2023-08-06T07:17:37.302Z,99255.75
2023-08-06T07:20:26.218Z,99249.44
2023-08-06T07:23:14.834Z,99255.97
2023-08-06T07:26:03.480Z,99253.69
2023-08-06T07:28:52.159Z,99251.97
2023-08-06T07:31:40.803Z,99240.13
2023-08-06T07:34:30.863Z,99249.28
2023-08-06T07:37:19.475Z,99240.81
2023-08-06T07:40:09.737Z,99243.84
2023-08-06T07:42:58.504Z,99244.41
2023-08-06T07:45:47.128Z,99239.97
2023-08-06T07:48:36.003Z,99237.75
2023-08-06T07:51:26.197Z,99238.69
2023-08-06T07:54:15.097Z,99236.34
2023-08-06T07:57:04.088Z,99231.09
2023-08-06T07:59:54.671Z,99228.66
2023-08-06T08:02:44.195Z,99233.19
2023-08-06T08:05:33.768Z,99235.72
2023-08-06T08:08:24.082Z,99237.59
2023-08-06T08:11:13.048Z,99233.72
2023-08-06T08:14:02.552Z,99227.81
2023-08-06T08:16:51.523Z,99218.66
2023-08-06T08:19:44.764Z,99228.25
2023-08-06T08:22:33.826Z,99226.84
2023-08-06T08:25:23.927Z,99216.41
2023-08-06T08:28:12.623Z,99211.28
2023-08-06T08:31:01.364Z,99215.09
2023-08-06T08:33:50.824Z,99206.06
2023-08-06T08:36:41.067Z,99199.38
2023-08-06T08:39:29.751Z,99195.91
2023-08-06T08:42:19.818Z,99195.91
2023-08-06T08:45:15.751Z,99190.22
2023-08-06T08:48:04.670Z,99192.88
2023-08-06T08:50:53.485Z,99190.69
2023-08-06T08:53:43.291Z,99188.75
2023-08-06T08:56:32.043Z,99178.75
2023-08-06T08:59:23.593Z,99182.47
2023-08-06T09:02:14.318Z,99175.13
2023-08-06T09:05:04.402Z,99175.72
2023-08-06T09:07:55.792Z,99176.28
2023-08-06T09:10:46.120Z,99178.97
2023-08-06T09:13:34.913Z,99177.59
2023-08-06T09:16:25.318Z,99173.75
2023-08-06T09:19:16.546Z,99180.38
2023-08-06T09:22:11.978Z,99173.28
2023-08-06T09:25:00.819Z,99171.78
2023-08-06T09:27:49.557Z,99175.97
2023-08-06T09:30:40.098Z,99169.31
2023-08-06T09:33:32.193Z,99172.91
2023-08-06T09:36:20.860Z,99170.84
2023-08-06T09:39:15.745Z,99170.84
2023-08-06T09:42:05.737Z,99162.16
2023-08-06T09:44:59.393Z,99157.59
2023-08-06T09:47:58.327Z,99155.75
2023-08-06T09:50:53.256Z,99158.75
2023-08-06T09:53:43.533Z,99160.06
2023-08-06T09:56:38.544Z,99161.56
2023-08-06T09:59:27.670Z,99142.28
2023-08-06T10:02:16.686Z,99146.13
2023-08-06T10:05:05.604Z,99140.53
2023-08-06T10:07:57.014Z,99136.47
2023-08-06T10:10:46.449Z,99132.53
2023-08-06T10:13:37.132Z,99138.53
2023-08-06T10:16:26.213Z,99128.56
2023-08-06T10:19:17.113Z,99128.22
2023-08-06T10:22:13.557Z,99136.91
2023-08-06T10:25:06.604Z,99124.00
2023-08-06T10:27:57.959Z,99124.94
2023-08-06T10:30:48.175Z,99129.31
2023-08-06T10:33:47.245Z,99117.22
2023-08-06T10:36:36.592Z,99113.50
2023-08-06T10:39:30.900Z,99111.47
2023-08-06T10:42:29.900Z,99103.00
2023-08-06T10:45:20.293Z,99101.38
2023-08-06T10:48:09.148Z,99093.78
2023-08-06T10:50:59.368Z,99092.31
2023-08-06T10:53:49.645Z,99092.16
2023-08-06T10:56:43.372Z,99088.91
2023-08-06T10:59:33.657Z,99082.13
2023-08-06T11:02:22.584Z,99081.38
2023-08-06T11:05:12.343Z,99079.25
2023-08-06T11:08:01.006Z,99075.19
2023-08-06T11:11:01.752Z,99075.50
2023-08-06T11:13:53.440Z,99069.75
2023-08-06T11:16:43.591Z,99073.41
2023-08-06T11:19:32.401Z,99066.94
2023-08-06T11:22:21.074Z,99063.69
2023-08-06T11:25:10.223Z,99056.50
2023-08-06T11:27:58.970Z,99056.31
2023-08-06T11:30:47.675Z,99051.94
2023-08-06T11:33:37.767Z,99057.41
2023-08-06T11:36:32.970Z,99058.91
2023-08-06T11:39:22.253Z,99051.13
2023-08-06T11:42:11.318Z,99050.09
2023-08-06T11:45:00.165Z,99050.19
2023-08-06T11:47:54.452Z,99058.31
2023-08-06T11:50:45.343Z,99055.94
2023-08-06T11:53:34.450Z,99054.53
2023-08-06T11:56:23.370Z,99057.63
2023-08-06T11:59:14.669Z,99057.72
2023-08-06T12:02:06.794Z,99055.75
2023-08-06T12:05:06.819Z,99058.50
2023-08-06T12:07:59.391Z,99050.97
2023-08-06T12:10:49.213Z,99043.63
2023-08-06T12:13:37.916Z,99042.09
2023-08-06T12:16:26.938Z,99041.22
2023-08-06T12:19:15.722Z,99045.03
2023-08-06T12:22:04.889Z,99047.38
2023-08-06T12:24:54.932Z,99052.28
2023-08-06T12:27:45.452Z,99043.19
2023-08-06T12:30:34.225Z,99042.84
2023-08-06T12:33:22.944Z,99036.84
2023-08-06T12:36:11.614Z,99035.56
2023-08-06T12:39:00.378Z,99040.78
2023-08-06T12:41:50.474Z,99033.31
2023-08-06T12:44:39.241Z,99025.53
2023-08-06T12:47:28.072Z,99032.09
2023-08-06T12:50:18.351Z,99023.91
2023-08-06T12:53:07.198Z,99016.13
2023-08-06T12:55:56.008Z,99026.34
2023-08-06T12:58:48.890Z,99013.91
2023-08-06T13:01:37.748Z,99019.50
2023-08-06T13:04:26.693Z,99023.41
2023-08-06T13:07:15.534Z,99019.97
2023-08-06T13:10:05.150Z,99016.88
2023-08-06T13:12:53.915Z,99018.59
2023-08-06T13:15:44.068Z,99022.56
2023-08-06T13:18:32.885Z,99020.78
2023-08-06T13:21:21.596Z,99012.53
2023-08-06T13:24:10.621Z,99019.00
2023-08-06T13:26:59.590Z,99012.03
2023-08-06T13:29:48.630Z,99005.88
2023-08-06T13:32:39.021Z,99002.94
2023-08-06T13:35:27.910Z,99009.47
2023-08-06T13:38:16.749Z,99007.34
2023-08-06T13:41:06.662Z,99004.72
2023-08-06T13:43:55.331Z,99009.34
2023-08-06T13:46:45.070Z,99006.69
2023-08-06T13:49:39.875Z,98998.47
2023-08-06T13:52:29.684Z,99001.31
2023-08-06T13:55:18.350Z,99002.78
2023-08-06T13:58:06.933Z,98997.19
2023-08-06T14:00:56.612Z,98988.34
2023-08-06T14:03:45.407Z,98992.59
2023-08-06T14:06:35.667Z,98993.09
2023-08-06T14:09:24.539Z,98989.00
2023-08-06T14:12:13.531Z,98992.72
2023-08-06T14:15:03.078Z,98990.84
2023-08-06T14:17:51.901Z,98991.91
2023-08-06T14:20:41.059Z,98983.25
2023-08-06T14:23:31.159Z,98992.91
2023-08-06T14:26:19.878Z,98981.97
2023-08-06T14:29:08.937Z,98987.72
2023-08-06T14:31:57.764Z,98982.53
2023-08-06T14:34:47.086Z,98991.78
2023-08-06T14:37:36.468Z,98988.50
2023-08-06T14:40:29.685Z,98993.41
2023-08-06T14:43:18.532Z,98991.28
2023-08-06T14:46:07.242Z,98999.19
2023-08-06T14:48:56.017Z,99002.78
2023-08-06T14:51:44.709Z,98993.69
2023-08-06T14:54:33.496Z,98999.06
2023-08-06T14:57:28.857Z,98997.13
2023-08-06T15:00:17.789Z,99010.94
2023-08-06T15:03:06.452Z,99005.59
2023-08-06T15:05:55.159Z,98999.72
2023-08-06T15:08:47.805Z,98999.88
2023-08-06T15:11:36.676Z,99001.31
2023-08-06T15:14:26.850Z,99000.19
2023-08-06T15:17:15.777Z,98997.59
2023-08-06T15:20:04.633Z,99001.19
2023-08-06T15:22:53.535Z,99004.59
2023-08-06T15:25:42.107Z,99005.69
2023-08-06T15:28:30.944Z,99004.72
2023-08-06T15:31:23.491Z,99006.66
2023-08-06T15:34:12.237Z,99008.28
2023-08-06T15:37:00.867Z,98998.69
2023-08-06T15:39:49.571Z,99005.41
2023-08-06T15:42:38.212Z,99008.28
2023-08-06T15:45:28.014Z,99002.81
2023-08-06T15:48:18.027Z,99010.03
2023-08-06T15:51:06.729Z,99011.94
2023-08-06T15:53:55.449Z,99008.78
2023-08-06T15:56:44.408Z,99019.63
2023-08-06T15:59:34.346Z,99014.25
2023-08-06T16:02:25.216Z,99008.16
2023-08-06T16:05:15.477Z,99005.84
2023-08-06T16:08:06.403Z,99011.19
2023-08-06T16:10:55.086Z,99006.66
2023-08-06T16:13:44.886Z,99007.53
2023-08-06T16:16:33.893Z,99007.59
2023-08-06T16:19:22.614Z,99007.59
2023-08-06T16:22:12.856Z,99011.13
2023-08-06T16:25:01.508Z,99017.19
2023-08-06T16:27:50.167Z,99020.81
2023-08-06T16:30:38.793Z,99023.34
2023-08-06T16:33:27.491Z,99021.66
2023-08-06T16:36:16.286Z,99015.63
2023-08-06T16:39:06.352Z,99025.38
2023-08-06T16:41:55.331Z,99014.56
2023-08-06T16:44:43.974Z,99006.78
2023-08-06T16:47:32.770Z,98999.16
2023-08-06T16:50:21.359Z,99002.31
2023-08-06T16:53:10.038Z,99005.16
2023-08-06T16:56:02.046Z,99009.28
2023-08-06T16:58:50.826Z,99014.97
2023-08-06T17:01:40.718Z,99008.13
2023-08-06T17:04:29.536Z,99011.09
2023-08-06T17:07:18.302Z,99004.78
2023-08-06T17:10:08.016Z,98990.31
2023-08-06T17:13:06.172Z,98993.00
2023-08-06T17:16:06.941Z,98995.13
2023-08-06T17:18:55.574Z,98980.84
2023-08-06T17:21:44.205Z,99000.47
2023-08-06T17:24:35.210Z,98989.00
2023-08-06T17:27:24.758Z,99006.00
2023-08-06T17:30:14.857Z,99002.94
2023-08-06T17:33:03.702Z,99006.81
2023-08-06T17:35:54.534Z,99001.91
2023-08-06T17:38:43.385Z,99001.91
2023-08-06T17:41:31.981Z,99003.38
2023-08-06T17:44:20.575Z,99011.09
2023-08-06T17:47:17.544Z,99006.31
2023-08-06T17:50:12.270Z,99011.66
2023-08-06T17:53:00.930Z,99015.31
2023-08-06T17:55:49.987Z,99020.63
2023-08-06T17:58:38.652Z,99011.88
2023-08-06T18:01:27.457Z,99014.34
2023-08-06T18:04:17.541Z,99025.47
2023-08-06T18:07:06.880Z,99026.41
2023-08-06T18:09:55.517Z,99035.31
2023-08-06T18:12:44.392Z,99035.13
2023-08-06T18:15:33.052Z,99044.78
2023-08-06T18:18:21.724Z,99051.47
2023-08-06T18:21:12.729Z,99063.09
2023-08-06T18:24:02.369Z,99068.78
2023-08-06T18:26:50.986Z,99091.00
2023-08-06T18:29:39.607Z,99094.25
2023-08-06T18:32:28.287Z,99096.38
2023-08-06T18:35:17.251Z,99091.53
2023-08-06T18:38:08.195Z,99085.97
2023-08-06T18:40:59.723Z,99097.25
2023-08-06T18:43:49.461Z,99095.69
2023-08-06T18:46:38.245Z,99103.66
2023-08-06T18:49:27.169Z,99102.59
2023-08-06T18:52:15.816Z,99103.66
2023-08-06T18:55:06.386Z,99112.69
2023-08-06T18:57:55.028Z,99111.56
2023-08-06T19:00:43.858Z,99122.13
2023-08-06T19:03:32.864Z,99128.53
2023-08-06T19:06:21.764Z,99122.69
2023-08-06T19:09:10.421Z,99120.50
2023-08-06T19:12:00.474Z,99122.59
2023-08-06T19:14:50.062Z,99126.66
2023-08-06T19:17:38.749Z,99127.13
2023-08-06T19:20:27.419Z,99129.56
2023-08-06T19:23:20.828Z,99120.88
2023-08-06T19:26:09.503Z,99127.28
2023-08-06T19:29:00.122Z,99126.66
2023-08-06T19:32:05.144Z,99116.75
2023-08-06T19:34:54.824Z,99108.47
2023-08-06T19:37:43.630Z,99110.09
2023-08-06T19:40:32.315Z,99106.03
2023-08-06T19:43:20.983Z,99102.56
2023-08-06T19:46:11.201Z,99096.59
2023-08-06T19:49:02.357Z,99090.13
2023-08-06T19:51:51.171Z,99082.66
2023-08-06T19:54:39.862Z,99089.00
2023-08-06T19:57:28.478Z,99088.50
2023-08-06T20:00:17.857Z,99094.34
2023-08-06T20:03:09.264Z,99083.63
2023-08-06T20:05:57.992Z,99086.31
2023-08-06T20:08:46.689Z,99089.56
2023-08-06T20:11:35.384Z,99085.75
2023-08-06T20:14:24.069Z,99086.72
2023-08-06T20:17:12.678Z,99084.44
2023-08-06T20:20:02.700Z,99090.09
2023-08-06T20:22:51.311Z,99095.38
2023-08-06T20:25:39.967Z,99105.97
2023-08-06T20:28:29.082Z,99096.72
2023-08-06T20:31:17.821Z,99097.44
2023-08-06T20:34:06.505Z,99097.03
2023-08-06T20:36:57.487Z,99097.75
2023-08-06T20:39:46.180Z,99101.56
2023-08-06T20:42:34.852Z,99098.47
2023-08-06T20:45:23.573Z,99102.19
2023-08-06T20:48:12.246Z,99098.47
2023-08-06T20:51:00.950Z,99098.94
2023-08-06T20:53:50.998Z,99096.16
2023-08-06T20:56:39.772Z,99096.63
2023-08-06T20:59:30.133Z,99088.19
2023-08-06T21:02:19.796Z,99093.69
2023-08-06T21:05:09.321Z,99091.91
2023-08-06T21:07:58.092Z,99090.44
2023-08-06T21:10:49.506Z,99090.66
2023-08-06T21:13:38.416Z,99096.47
2023-08-06T21:16:27.917Z,99093.22
2023-08-06T21:19:16.598Z,99093.22
2023-08-06T21:22:07.159Z,99092.09
2023-08-06T21:24:55.819Z,99084.38
2023-08-06T21:27:48.762Z,99084.53
2023-08-06T21:30:37.644Z,99083.59
2023-08-06T21:33:27.264Z,99089.44
2023-08-06T21:36:18.429Z,99088.03
2023-08-06T21:39:07.094Z,99092.34
2023-08-06T21:41:55.925Z,99090.38
2023-08-06T21:44:46.253Z,99097.22
2023-08-06T21:47:35.146Z,99096.06
2023-08-06T21:50:23.844Z,99099.59
2023-08-06T21:53:12.530Z,99093.53
2023-08-06T21:56:06.029Z,99099.81
2023-08-06T21:58:59.140Z,99097.00
2023-08-06T22:01:49.341Z,99106.53
2023-08-06T22:04:38.057Z,99103.28
2023-08-06T22:07:26.804Z,99113.50
2023-08-06T22:10:15.475Z,99104.31
2023-08-06T22:13:04.121Z,99114.06
2023-08-06T22:15:52.832Z,99110.50
2023-08-06T22:18:42.996Z,99103.50
2023-08-06T22:21:32.242Z,99111.03
2023-08-06T22:24:20.912Z,99107.69
2023-08-06T22:27:09.618Z,99116.03
2023-08-06T22:29:58.226Z,99112.78
2023-08-06T22:32:47.613Z,99109.06
2023-08-06T22:35:39.102Z,99105.97
2023-08-06T22:38:28.668Z,99107.44
2023-08-06T22:41:17.364Z,99107.91
2023-08-06T22:44:06.391Z,99107.91
2023-08-06T22:46:55.018Z,99119.06
2023-08-06T22:49:44.650Z,99119.75
2023-08-06T22:52:34.728Z,99128.22
2023-08-06T22:55:48.136Z,99123.09
2023-08-06T22:58:32.178Z,99122.53
2023-08-06T23:01:20.906Z,99125.41
2023-08-06T23:04:09.832Z,99128.75
2023-08-06T23:06:58.551Z,99121.09
2023-08-06T23:09:48.568Z,99120.72
2023-08-06T23:12:37.366Z,99121.63
2023-08-06T23:15:26.015Z,99119.19
2023-08-06T23:18:14.658Z,99118.47
2023-08-06T23:21:03.381Z,99117.31
2023-08-06T23:23:52.057Z,99120.28
2023-08-06T23:26:42.144Z,99121.19
2023-08-06T23:29:30.745Z,99124.75
2023-08-06T23:32:19.352Z,99131.13
2023-08-06T23:35:08.276Z,99125.44
2023-08-06T23:37:56.940Z,99123.88
2023-08-06T23:40:45.742Z,99123.75
2023-08-06T23:43:36.026Z,99121.53
2023-08-06T23:46:25.673Z,99118.28
2023-08-06T23:49:15.025Z,99122.44
2023-08-06T23:52:03.713Z,99123.28
2023-08-06T23:54:52.528Z,99129.66
2023-08-06T23:57:41.165Z,99126.28
